TimeCDT,TemperatureF,Dew PointF,Humidity,Sea Level PressureIn,VisibilityMPH,Wind Direction,Wind SpeedMPH,Gust SpeedMPH,PrecipitationIn,Events,Conditions,WindDirDegrees,DateUTC
12:15 AM,49.1,33.8,56,30.16,10.0,Calm,Calm,-,N/A,,Clear,0,2012-09-27 05:15:00
12:35 AM,49.8,33.3,53,30.17,10.0,Calm,Calm,-,N/A,,Clear,0,2012-09-27 05:35:00
12:55 AM,49.1,33.3,54,30.16,10.0,Calm,Calm,-,N/A,,Clear,0,2012-09-27 05:55:00
1:15 AM,45.0,33.1,63,30.17,10.0,Calm,Calm,-,N/A,,Clear,0,2012-09-27 06:15:00
1:35 AM,47.3,29.3,50,30.17,10.0,Calm,Calm,-,N/A,,Clear,0,2012-09-27 06:35:00
1:55 AM,42.8,31.8,65,30.17,10.0,Calm,Calm,-,N/A,,Clear,0,2012-09-27 06:55:00
2:15 AM,43.3,31.6,63,30.16,10.0,Calm,Calm,-,N/A,,Clear,0,2012-09-27 07:15:00
2:35 AM,41.9,31.6,67,30.17,10.0,Calm,Calm,-,N/A,,Clear,0,2012-09-27 07:35:00
2:55 AM,44.1,31.5,61,30.16,0.8,Calm,Calm,-,N/A,,Haze,0,2012-09-27 07:55:00
3:15 AM,42.3,31.3,65,30.16,10.0,Calm,Calm,-,N/A,,Clear,0,2012-09-27 08:15:00
3:35 AM,44.2,32.0,62,30.17,10.0,Calm,Calm,-,N/A,,Clear,0,2012-09-27 08:35:00
3:55 AM,43.2,31.3,63,30.18,10.0,Calm,Calm,-,N/A,,Clear,0,2012-09-27 08:55:00
4:15 AM,41.2,32.0,70,30.19,10.0,Calm,Calm,-,N/A,,Clear,0,2012-09-27 09:15:00
4:35 AM,41.4,31.3,67,30.20,10.0,Calm,Calm,-,N/A,,Clear,0,2012-09-27 09:35:00
4:55 AM,39.4,31.6,74,30.21,10.0,WNW,4.6,-,N/A,,Clear,290,2012-09-27 09:55:00
5:15 AM,36.9,31.6,81,30.21,10.0,Calm,Calm,-,N/A,,Clear,0,2012-09-27 10:15:00
5:35 AM,37.6,31.5,79,30.20,10.0,Calm,Calm,-,N/A,,Clear,0,2012-09-27 10:35:00
5:55 AM,38.3,30.6,74,30.19,10.0,Calm,Calm,-,N/A,,Clear,0,2012-09-27 10:55:00
6:15 AM,37.8,30.6,75,30.20,10.0,Calm,Calm,-,N/A,,Clear,0,2012-09-27 11:15:00
6:35 AM,36.5,30.6,79,30.20,10.0,Calm,Calm,-,N/A,,Clear,0,2012-09-27 11:35:00
6:55 AM,37.8,30.6,75,30.21,10.0,Calm,Calm,-,N/A,,Clear,0,2012-09-27 11:55:00
7:15 AM,37.4,30.6,76,30.21,10.0,Calm,Calm,-,N/A,,Clear,0,2012-09-27 12:15:00
7:35 AM,36.3,30.6,80,30.20,5.0,Calm,Calm,-,N/A,,Haze,0,2012-09-27 12:35:00
7:55 AM,35.6,30.6,82,30.20,7.0,Calm,Calm,-,N/A,,Clear,0,2012-09-27 12:55:00
8:15 AM,39.0,31.6,75,30.20,7.0,Calm,Calm,-,N/A,,Clear,0,2012-09-27 13:15:00
8:35 AM,41.5,32.2,69,30.21,10.0,Calm,Calm,-,N/A,,Clear,0,2012-09-27 13:35:00
8:55 AM,44.2,33.3,65,30.21,5.0,Calm,Calm,-,N/A,,Haze,0,2012-09-27 13:55:00
9:15 AM,47.5,34.3,60,30.21,10.0,Calm,Calm,-,N/A,,Clear,0,2012-09-27 14:15:00
9:35 AM,50.7,34.3,53,30.21,10.0,Calm,Calm,-,N/A,,Clear,0,2012-09-27 14:35:00
9:55 AM,53.6,34.9,49,30.22,10.0,Calm,Calm,-,N/A,,Clear,0,2012-09-27 14:55:00
10:15 AM,56.7,36.0,46,30.22,10.0,Calm,Calm,-,N/A,,Clear,0,2012-09-27 15:15:00
10:35 AM,59.9,36.1,41,30.22,10.0,Calm,Calm,-,N/A,,Clear,0,2012-09-27 15:35:00
10:55 AM,62.2,35.8,37,30.23,10.0,Calm,Calm,-,N/A,,Clear,0,2012-09-27 15:55:00
11:15 AM,65.8,34.7,32,30.23,10.0,Calm,Calm,-,N/A,,Clear,0,2012-09-27 16:15:00
11:35 AM,66.9,33.8,29,30.23,10.0,Calm,Calm,-,N/A,,Clear,0,2012-09-27 16:35:00
11:55 AM,68.9,33.4,27,30.22,10.0,East,3.5,-,N/A,,Clear,90,2012-09-27 16:55:00
12:15 PM,70.7,33.4,25,30.21,10.0,Calm,Calm,-,N/A,,Clear,0,2012-09-27 17:15:00
12:35 PM,71.4,32.0,23,30.20,10.0,East,3.5,-,N/A,,Clear,100,2012-09-27 17:35:00
12:55 PM,72.5,31.8,22,30.20,10.0,NNE,3.5,-,N/A,,Clear,20,2012-09-27 17:55:00
1:15 PM,73.4,31.8,22,30.19,10.0,East,4.6,-,N/A,,Clear,80,2012-09-27 18:15:00
1:35 PM,73.9,31.3,21,30.18,10.0,North,3.5,-,N/A,,Clear,10,2012-09-27 18:35:00
1:55 PM,75.2,31.1,20,30.18,10.0,North,5.8,-,N/A,,Clear,360,2012-09-27 18:55:00
2:15 PM,74.8,30.4,20,30.16,10.0,Calm,Calm,-,N/A,,Clear,0,2012-09-27 19:15:00
2:35 PM,76.1,30.6,19,30.16,10.0,NE,5.8,-,N/A,,Clear,40,2012-09-27 19:35:00
2:55 PM,75.2,30.2,19,30.15,10.0,NNE,4.6,-,N/A,,Clear,30,2012-09-27 19:55:00
3:15 PM,75.9,29.8,18,30.15,10.0,Calm,Calm,-,N/A,,Clear,0,2012-09-27 20:15:00
3:35 PM,76.3,30.0,18,30.14,10.0,NNW,3.5,-,N/A,,Clear,340,2012-09-27 20:35:00
3:55 PM,76.6,29.7,18,30.13,10.0,NNW,3.5,-,N/A,,Clear,340,2012-09-27 20:55:00
4:15 PM,76.6,30.4,18,30.13,10.0,North,3.5,-,N/A,,Clear,350,2012-09-27 21:15:00
4:35 PM,76.8,30.7,19,30.13,10.0,North,5.8,-,N/A,,Clear,350,2012-09-27 21:35:00
4:55 PM,76.1,30.2,19,30.13,10.0,ENE,3.5,-,N/A,,Clear,60,2012-09-27 21:55:00
5:35 PM,76.1,30.0,18,30.13,10.0,NE,4.6,-,N/A,,Clear,50,2012-09-27 22:35:00
5:55 PM,74.3,28.9,19,30.13,10.0,NE,3.5,-,N/A,,Clear,50,2012-09-27 22:55:00
6:15 PM,73.4,29.3,20,30.13,10.0,Calm,Calm,-,N/A,,Clear,0,2012-09-27 23:15:00
6:35 PM,71.4,31.8,23,30.13,10.0,Calm,Calm,-,N/A,,Clear,0,2012-09-27 23:35:00
6:55 PM,70.2,30.4,23,30.13,10.0,ENE,3.5,-,N/A,,Clear,70,2012-09-27 23:55:00
7:15 PM,68.9,29.1,23,30.13,10.0,Calm,Calm,-,N/A,,Clear,0,2012-09-28 00:15:00
7:35 PM,68.0,29.3,24,30.13,10.0,Calm,Calm,-,N/A,,Clear,0,2012-09-28 00:35:00
7:55 PM,62.2,35.1,36,30.13,10.0,Calm,Calm,-,N/A,,Clear,0,2012-09-28 00:55:00
8:15 PM,60.3,36.5,41,30.14,7.0,Calm,Calm,-,N/A,,Clear,0,2012-09-28 01:15:00
8:35 PM,60.8,39.7,46,30.14,10.0,Calm,Calm,-,N/A,,Clear,0,2012-09-28 01:35:00
9:35 PM,58.6,39.4,49,30.15,10.0,Calm,Calm,-,N/A,,Clear,0,2012-09-28 02:35:00
9:55 PM,57.2,43.7,61,30.15,10.0,Calm,Calm,-,N/A,,Clear,0,2012-09-28 02:55:00
10:15 PM,55.2,39.7,56,30.15,10.0,Calm,Calm,-,N/A,,Clear,0,2012-09-28 03:15:00
10:35 PM,52.9,37.2,55,30.15,7.0,Calm,Calm,-,N/A,,Clear,0,2012-09-28 03:35:00
10:55 PM,52.5,37.9,58,30.15,5.0,Calm,Calm,-,N/A,,Haze,0,2012-09-28 03:55:00
11:15 PM,51.8,35.8,54,30.15,7.0,Calm,Calm,-,N/A,,Clear,0,2012-09-28 04:15:00
11:35 PM,50.5,36.7,59,30.15,5.0,Calm,Calm,-,N/A,,Haze,0,2012-09-28 04:35:00
11:55 PM,51.3,38.7,62,30.15,7.0,Calm,Calm,-,N/A,,Clear,0,2012-09-28 04:55:00